sensor_id;sensor_type;location;lat;lon;timestamp;temperature;humidity
69418;DHT22;56610;48.872;2.400;2022-09-01T00:02:23;24.50;98.20
69418;DHT22;56610;48.872;2.400;2022-09-01T00:04:52;24.50;98.40
69418;DHT22;56610;48.872;2.400;2022-09-01T00:07:28;24.40;98.40
69418;DHT22;56610;48.872;2.400;2022-09-01T00:09:54;24.40;98.70
69418;DHT22;56610;48.872;2.400;2022-09-01T00:12:20;24.40;98.60
69418;DHT22;56610;48.872;2.400;2022-09-01T00:14:47;24.30;98.60
69418;DHT22;56610;48.872;2.400;2022-09-01T00:17:13;24.30;98.90
69418;DHT22;56610;48.872;2.400;2022-09-01T00:19:39;24.20;99.10
69418;DHT22;56610;48.872;2.400;2022-09-01T00:22:05;24.20;99.40
69418;DHT22;56610;48.872;2.400;2022-09-01T00:24:31;24.10;99.30
69418;DHT22;56610;48.872;2.400;2022-09-01T00:26:58;24.20;99.20
69418;DHT22;56610;48.872;2.400;2022-09-01T00:29:24;24.10;99.40
69418;DHT22;56610;48.872;2.400;2022-09-01T00:32:10;24.10;99.60
69418;DHT22;56610;48.872;2.400;2022-09-01T00:34:36;24.10;99.70
69418;DHT22;56610;48.872;2.400;2022-09-01T00:37:01;24.00;99.90
69418;DHT22;56610;48.872;2.400;2022-09-01T00:39:27;23.90;99.90
69418;DHT22;56610;48.872;2.400;2022-09-01T00:41:53;23.80;99.90
69418;DHT22;56610;48.872;2.400;2022-09-01T00:44:20;23.80;99.90
69418;DHT22;56610;48.872;2.400;2022-09-01T00:46:53;23.80;99.90
69418;DHT22;56610;48.872;2.400;2022-09-01T00:49:21;23.70;99.90
69418;DHT22;56610;48.872;2.400;2022-09-01T00:51:52;23.70;99.90
69418;DHT22;56610;48.872;2.400;2022-09-01T00:54:27;23.80;99.90
69418;DHT22;56610;48.872;2.400;2022-09-01T00:56:53;23.90;99.90
69418;DHT22;56610;48.872;2.400;2022-09-01T00:59:21;23.70;99.90
69418;DHT22;56610;48.872;2.400;2022-09-01T01:01:48;23.60;99.90
69418;DHT22;56610;48.872;2.400;2022-09-01T01:04:14;23.60;99.90
69418;DHT22;56610;48.872;2.400;2022-09-01T01:06:45;23.90;99.90
69418;DHT22;56610;48.872;2.400;2022-09-01T01:09:18;24.00;99.90
69418;DHT22;56610;48.872;2.400;2022-09-01T01:11:44;23.90;99.90
69418;DHT22;56610;48.872;2.400;2022-09-01T01:14:13;23.80;99.90
69418;DHT22;56610;48.872;2.400;2022-09-01T01:16:44;23.70;99.90
69418;DHT22;56610;48.872;2.400;2022-09-01T01:22:12;23.40;99.90
69418;DHT22;56610;48.872;2.400;2022-09-01T01:24:57;23.30;99.90
69418;DHT22;56610;48.872;2.400;2022-09-01T01:27:23;23.30;99.90
69418;DHT22;56610;48.872;2.400;2022-09-01T01:29:49;23.50;99.90
69418;DHT22;56610;48.872;2.400;2022-09-01T01:32:17;23.60;99.90
69418;DHT22;56610;48.872;2.400;2022-09-01T01:34:43;23.60;99.90
69418;DHT22;56610;48.872;2.400;2022-09-01T01:37:11;23.60;99.90
69418;DHT22;56610;48.872;2.400;2022-09-01T01:39:40;23.40;99.90
69418;DHT22;56610;48.872;2.400;2022-09-01T01:42:07;23.40;99.90
69418;DHT22;56610;48.872;2.400;2022-09-01T01:44:34;23.40;99.90
69418;DHT22;56610;48.872;2.400;2022-09-01T01:47:04;23.30;99.90
69418;DHT22;56610;48.872;2.400;2022-09-01T01:49:35;23.40;99.90
69418;DHT22;56610;48.872;2.400;2022-09-01T01:52:01;23.40;99.90
69418;DHT22;56610;48.872;2.400;2022-09-01T01:54:29;23.40;99.90
69418;DHT22;56610;48.872;2.400;2022-09-01T01:56:55;23.40;99.90
69418;DHT22;56610;48.872;2.400;2022-09-01T01:59:22;23.30;99.90
69418;DHT22;56610;48.872;2.400;2022-09-01T02:01:49;23.20;99.90
69418;DHT22;56610;48.872;2.400;2022-09-01T02:04:16;23.10;99.90
69418;DHT22;56610;48.872;2.400;2022-09-01T02:06:43;23.10;99.90
69418;DHT22;56610;48.872;2.400;2022-09-01T02:09:14;23.10;99.90
69418;DHT22;56610;48.872;2.400;2022-09-01T02:11:40;23.20;99.90
69418;DHT22;56610;48.872;2.400;2022-09-01T02:14:07;23.10;99.90
69418;DHT22;56610;48.872;2.400;2022-09-01T02:16:34;23.10;99.90
69418;DHT22;56610;48.872;2.400;2022-09-01T02:19:00;23.10;99.90
69418;DHT22;56610;48.872;2.400;2022-09-01T02:21:46;23.10;99.90
69418;DHT22;56610;48.872;2.400;2022-09-01T02:24:18;23.10;99.90
69418;DHT22;56610;48.872;2.400;2022-09-01T02:26:45;23.10;99.90
69418;DHT22;56610;48.872;2.400;2022-09-01T02:29:15;23.10;99.90
69418;DHT22;56610;48.872;2.400;2022-09-01T02:31:47;23.20;99.90
69418;DHT22;56610;48.872;2.400;2022-09-01T02:34:14;23.10;99.90
69418;DHT22;56610;48.872;2.400;2022-09-01T02:36:42;23.20;99.90
69418;DHT22;56610;48.872;2.400;2022-09-01T02:39:15;23.10;99.90
69418;DHT22;56610;48.872;2.400;2022-09-01T02:41:41;23.10;99.90
69418;DHT22;56610;48.872;2.400;2022-09-01T02:44:07;23.00;99.90
69418;DHT22;56610;48.872;2.400;2022-09-01T02:46:39;23.00;99.90
69418;DHT22;56610;48.872;2.400;2022-09-01T02:49:10;22.90;99.90
69418;DHT22;56610;48.872;2.400;2022-09-01T02:51:41;22.80;99.90
69418;DHT22;56610;48.872;2.400;2022-09-01T02:54:07;22.80;99.90
69418;DHT22;56610;48.872;2.400;2022-09-01T02:56:33;22.80;99.90
69418;DHT22;56610;48.872;2.400;2022-09-01T02:58:58;22.80;99.90
69418;DHT22;56610;48.872;2.400;2022-09-01T03:01:28;22.80;99.90
69418;DHT22;56610;48.872;2.400;2022-09-01T03:03:59;22.80;99.90
69418;DHT22;56610;48.872;2.400;2022-09-01T03:06:25;22.80;99.90
69418;DHT22;56610;48.872;2.400;2022-09-01T03:08:53;22.70;99.90
69418;DHT22;56610;48.872;2.400;2022-09-01T03:11:21;22.70;99.90
69418;DHT22;56610;48.872;2.400;2022-09-01T03:13:48;22.80;99.90
69418;DHT22;56610;48.872;2.400;2022-09-01T03:16:13;22.80;99.90
69418;DHT22;56610;48.872;2.400;2022-09-01T03:18:40;22.80;99.90
69418;DHT22;56610;48.872;2.400;2022-09-01T03:21:07;22.70;99.90
69418;DHT22;56610;48.872;2.400;2022-09-01T03:23:36;22.70;99.90
69418;DHT22;56610;48.872;2.400;2022-09-01T03:26:02;22.60;99.90
69418;DHT22;56610;48.872;2.400;2022-09-01T03:31:14;22.70;99.90
69418;DHT22;56610;48.872;2.400;2022-09-01T03:33:40;22.70;99.90
69418;DHT22;56610;48.872;2.400;2022-09-01T03:36:07;22.70;99.90
69418;DHT22;56610;48.872;2.400;2022-09-01T03:38:33;22.70;99.90
69418;DHT22;56610;48.872;2.400;2022-09-01T03:41:03;22.70;99.90
69418;DHT22;56610;48.872;2.400;2022-09-01T03:43:31;22.60;99.90
69418;DHT22;56610;48.872;2.400;2022-09-01T03:45:58;22.60;99.90
69418;DHT22;56610;48.872;2.400;2022-09-01T03:48:28;22.50;99.90
69418;DHT22;56610;48.872;2.400;2022-09-01T03:50:57;22.50;99.90
69418;DHT22;56610;48.872;2.400;2022-09-01T03:53:28;22.60;99.90
69418;DHT22;56610;48.872;2.400;2022-09-01T03:55:55;22.60;99.90
69418;DHT22;56610;48.872;2.400;2022-09-01T03:58:22;22.60;99.90
69418;DHT22;56610;48.872;2.400;2022-09-01T04:00:53;22.70;99.90
69418;DHT22;56610;48.872;2.400;2022-09-01T04:06:13;22.70;99.90
69418;DHT22;56610;48.872;2.400;2022-09-01T04:08:39;22.70;99.90
69418;DHT22;56610;48.872;2.400;2022-09-01T04:11:17;22.80;99.90
69418;DHT22;56610;48.872;2.400;2022-09-01T04:13:43;22.80;99.90
69418;DHT22;56610;48.872;2.400;2022-09-01T04:16:21;22.80;99.90
69418;DHT22;56610;48.872;2.400;2022-09-01T04:19:06;22.80;99.90
69418;DHT22;56610;48.872;2.400;2022-09-01T04:21:41;22.80;99.90
69418;DHT22;56610;48.872;2.400;2022-09-01T04:24:07;22.80;99.90
69418;DHT22;56610;48.872;2.400;2022-09-01T04:26:35;22.80;99.90
69418;DHT22;56610;48.872;2.400;2022-09-01T04:29:02;22.80;99.90
69418;DHT22;56610;48.872;2.400;2022-09-01T04:31:28;22.70;99.90
69418;DHT22;56610;48.872;2.400;2022-09-01T04:33:55;22.80;99.90
69418;DHT22;56610;48.872;2.400;2022-09-01T04:36:25;22.90;99.90
69418;DHT22;56610;48.872;2.400;2022-09-01T04:38:54;22.80;99.90
69418;DHT22;56610;48.872;2.400;2022-09-01T04:41:28;22.80;99.90
69418;DHT22;56610;48.872;2.400;2022-09-01T04:43:58;22.80;99.90
69418;DHT22;56610;48.872;2.400;2022-09-01T04:46:26;22.80;99.90
69418;DHT22;56610;48.872;2.400;2022-09-01T04:48:56;22.70;99.90
69418;DHT22;56610;48.872;2.400;2022-09-01T04:51:22;22.80;99.90
69418;DHT22;56610;48.872;2.400;2022-09-01T04:53:48;22.70;99.90
69418;DHT22;56610;48.872;2.400;2022-09-01T04:56:16;22.70;99.90
69418;DHT22;56610;48.872;2.400;2022-09-01T04:58:48;22.70;99.90
69418;DHT22;56610;48.872;2.400;2022-09-01T05:01:17;22.70;99.90
69418;DHT22;56610;48.872;2.400;2022-09-01T05:03:43;22.60;99.90
69418;DHT22;56610;48.872;2.400;2022-09-01T05:06:14;22.70;99.90
69418;DHT22;56610;48.872;2.400;2022-09-01T05:08:40;22.70;99.90
69418;DHT22;56610;48.872;2.400;2022-09-01T05:11:06;22.60;99.90
69418;DHT22;56610;48.872;2.400;2022-09-01T05:13:32;22.70;99.90
69418;DHT22;56610;48.872;2.400;2022-09-01T05:16:03;22.60;99.90
69418;DHT22;56610;48.872;2.400;2022-09-01T05:18:30;22.60;99.90
69418;DHT22;56610;48.872;2.400;2022-09-01T05:20:56;22.50;99.90
69418;DHT22;56610;48.872;2.400;2022-09-01T05:23:22;22.50;99.90
69418;DHT22;56610;48.872;2.400;2022-09-01T05:25:50;22.60;99.90
69418;DHT22;56610;48.872;2.400;2022-09-01T05:28:20;22.60;99.90
69418;DHT22;56610;48.872;2.400;2022-09-01T05:30:49;22.60;99.90
69418;DHT22;56610;48.872;2.400;2022-09-01T05:33:19;22.70;99.90
69418;DHT22;56610;48.872;2.400;2022-09-01T05:35:57;22.60;99.90
69418;DHT22;56610;48.872;2.400;2022-09-01T05:38:26;22.50;99.90
69418;DHT22;56610;48.872;2.400;2022-09-01T05:41:00;22.60;99.90
69418;DHT22;56610;48.872;2.400;2022-09-01T05:43:27;22.60;99.90
69418;DHT22;56610;48.872;2.400;2022-09-01T05:45:55;22.70;99.90
69418;DHT22;56610;48.872;2.400;2022-09-01T05:48:21;22.70;99.90
69418;DHT22;56610;48.872;2.400;2022-09-01T05:50:48;22.60;99.90
69418;DHT22;56610;48.872;2.400;2022-09-01T05:53:15;22.60;99.90
69418;DHT22;56610;48.872;2.400;2022-09-01T05:55:46;22.60;99.90
69418;DHT22;56610;48.872;2.400;2022-09-01T05:58:14;22.70;99.90
69418;DHT22;56610;48.872;2.400;2022-09-01T06:00:41;22.60;99.90
69418;DHT22;56610;48.872;2.400;2022-09-01T06:03:11;22.60;99.90
69418;DHT22;56610;48.872;2.400;2022-09-01T06:05:39;22.60;99.90
69418;DHT22;56610;48.872;2.400;2022-09-01T06:08:07;22.60;99.90
69418;DHT22;56610;48.872;2.400;2022-09-01T06:10:36;22.60;99.90
69418;DHT22;56610;48.872;2.400;2022-09-01T06:13:05;22.60;99.90
69418;DHT22;56610;48.872;2.400;2022-09-01T06:15:31;22.60;99.90
69418;DHT22;56610;48.872;2.400;2022-09-01T06:17:57;22.70;99.90
69418;DHT22;56610;48.872;2.400;2022-09-01T06:20:24;22.70;99.90
69418;DHT22;56610;48.872;2.400;2022-09-01T06:22:51;22.80;99.90
69418;DHT22;56610;48.872;2.400;2022-09-01T06:25:18;22.70;99.90
69418;DHT22;56610;48.872;2.400;2022-09-01T06:27:45;22.80;99.90
69418;DHT22;56610;48.872;2.400;2022-09-01T06:30:13;22.70;99.90
69418;DHT22;56610;48.872;2.400;2022-09-01T06:32:43;22.60;99.90
69418;DHT22;56610;48.872;2.400;2022-09-01T06:35:10;22.60;99.90
69418;DHT22;56610;48.872;2.400;2022-09-01T06:37:38;22.60;99.90
69418;DHT22;56610;48.872;2.400;2022-09-01T06:40:04;22.70;99.90
69418;DHT22;56610;48.872;2.400;2022-09-01T06:42:30;22.70;99.90
69418;DHT22;56610;48.872;2.400;2022-09-01T06:45:00;22.70;99.90
69418;DHT22;56610;48.872;2.400;2022-09-01T06:47:26;22.80;99.90
69418;DHT22;56610;48.872;2.400;2022-09-01T06:49:53;23.00;99.90
69418;DHT22;56610;48.872;2.400;2022-09-01T06:52:23;23.20;99.90
69418;DHT22;56610;48.872;2.400;2022-09-01T06:54:49;23.30;99.90
69418;DHT22;56610;48.872;2.400;2022-09-01T06:57:16;23.40;99.90
69418;DHT22;56610;48.872;2.400;2022-09-01T06:59:42;23.50;99.90
69418;DHT22;56610;48.872;2.400;2022-09-01T07:02:07;23.70;99.90
69418;DHT22;56610;48.872;2.400;2022-09-01T07:04:33;23.90;99.90
69418;DHT22;56610;48.872;2.400;2022-09-01T07:06:59;24.10;99.90
69418;DHT22;56610;48.872;2.400;2022-09-01T07:09:27;24.20;99.90
69418;DHT22;56610;48.872;2.400;2022-09-01T07:11:53;24.40;99.90
69418;DHT22;56610;48.872;2.400;2022-09-01T07:14:20;24.60;99.90
69418;DHT22;56610;48.872;2.400;2022-09-01T07:16:46;24.80;99.90
69418;DHT22;56610;48.872;2.400;2022-09-01T07:19:12;24.80;99.90
69418;DHT22;56610;48.872;2.400;2022-09-01T07:21:41;24.90;99.90
69418;DHT22;56610;48.872;2.400;2022-09-01T07:24:08;24.90;99.90
69418;DHT22;56610;48.872;2.400;2022-09-01T07:26:34;24.90;99.90
69418;DHT22;56610;48.872;2.400;2022-09-01T07:29:02;24.80;99.90
69418;DHT22;56610;48.872;2.400;2022-09-01T07:31:29;24.80;99.90
69418;DHT22;56610;48.872;2.400;2022-09-01T07:33:59;24.80;99.90
69418;DHT22;56610;48.872;2.400;2022-09-01T07:36:25;24.80;99.90
69418;DHT22;56610;48.872;2.400;2022-09-01T07:38:51;24.70;99.90
69418;DHT22;56610;48.872;2.400;2022-09-01T07:44:07;24.80;99.90
69418;DHT22;56610;48.872;2.400;2022-09-01T07:46:38;24.70;99.90
69418;DHT22;56610;48.872;2.400;2022-09-01T07:49:03;24.90;99.90
69418;DHT22;56610;48.872;2.400;2022-09-01T07:51:31;25.10;99.90
69418;DHT22;56610;48.872;2.400;2022-09-01T07:53:58;25.30;99.90
69418;DHT22;56610;48.872;2.400;2022-09-01T07:56:26;25.40;99.90
69418;DHT22;56610;48.872;2.400;2022-09-01T07:58:55;25.40;99.90
69418;DHT22;56610;48.872;2.400;2022-09-01T08:01:24;25.50;99.50
69418;DHT22;56610;48.872;2.400;2022-09-01T08:03:56;25.30;99.70
69418;DHT22;56610;48.872;2.400;2022-09-01T08:06:24;25.20;99.90
69418;DHT22;56610;48.872;2.400;2022-09-01T08:08:52;25.10;99.90
69418;DHT22;56610;48.872;2.400;2022-09-01T08:11:20;25.00;99.90
69418;DHT22;56610;48.872;2.400;2022-09-01T08:13:47;24.90;99.90
69418;DHT22;56610;48.872;2.400;2022-09-01T08:16:13;24.90;99.90
69418;DHT22;56610;48.872;2.400;2022-09-01T08:18:40;24.80;99.90
69418;DHT22;56610;48.872;2.400;2022-09-01T08:23:54;24.60;99.90
69418;DHT22;56610;48.872;2.400;2022-09-01T08:26:23;24.60;99.90
69418;DHT22;56610;48.872;2.400;2022-09-01T08:28:49;24.50;99.90
69418;DHT22;56610;48.872;2.400;2022-09-01T08:31:17;24.60;99.90
69418;DHT22;56610;48.872;2.400;2022-09-01T08:33:45;24.70;99.90
69418;DHT22;56610;48.872;2.400;2022-09-01T08:36:13;24.80;99.90
69418;DHT22;56610;48.872;2.400;2022-09-01T08:38:39;24.70;99.90
69418;DHT22;56610;48.872;2.400;2022-09-01T08:41:42;24.70;99.90
69418;DHT22;56610;48.872;2.400;2022-09-01T08:49:53;24.90;99.90
69418;DHT22;56610;48.872;2.400;2022-09-01T08:52:32;24.90;99.90
69418;DHT22;56610;48.872;2.400;2022-09-01T08:55:11;25.00;99.90
69418;DHT22;56610;48.872;2.400;2022-09-01T08:57:41;25.00;99.90
69418;DHT22;56610;48.872;2.400;2022-09-01T09:00:12;25.00;99.90
69418;DHT22;56610;48.872;2.400;2022-09-01T09:05:56;25.00;99.90
69418;DHT22;56610;48.872;2.400;2022-09-01T09:17:01;25.30;99.90
69418;DHT22;56610;48.872;2.400;2022-09-01T09:19:41;25.40;99.90
69418;DHT22;56610;48.872;2.400;2022-09-01T09:22:13;25.60;99.90
69418;DHT22;56610;48.872;2.400;2022-09-01T09:29:44;25.90;99.50
69418;DHT22;56610;48.872;2.400;2022-09-01T09:32:09;25.90;99.50
69418;DHT22;56610;48.872;2.400;2022-09-01T09:34:38;25.90;99.30
69418;DHT22;56610;48.872;2.400;2022-09-01T09:37:20;25.90;99.30
69418;DHT22;56610;48.872;2.400;2022-09-01T09:40:19;25.90;99.20
69418;DHT22;56610;48.872;2.400;2022-09-01T09:45:25;26.00;99.20
69418;DHT22;56610;48.872;2.400;2022-09-01T09:47:52;26.20;99.10
69418;DHT22;56610;48.872;2.400;2022-09-01T09:52:45;26.30;98.70
69418;DHT22;56610;48.872;2.400;2022-09-01T09:57:53;26.30;98.10
69418;DHT22;56610;48.872;2.400;2022-09-01T10:00:30;26.40;97.80
69418;DHT22;56610;48.872;2.400;2022-09-01T10:03:16;26.50;97.50
69418;DHT22;56610;48.872;2.400;2022-09-01T10:05:48;26.70;97.20
69418;DHT22;56610;48.872;2.400;2022-09-01T10:11:02;27.10;96.80
69418;DHT22;56610;48.872;2.400;2022-09-01T10:13:28;27.20;96.70
69418;DHT22;56610;48.872;2.400;2022-09-01T10:16:00;27.40;96.10
69418;DHT22;56610;48.872;2.400;2022-09-01T10:18:31;27.50;96.20
69418;DHT22;56610;48.872;2.400;2022-09-01T10:21:02;27.60;96.00
69418;DHT22;56610;48.872;2.400;2022-09-01T10:23:30;27.70;95.50
69418;DHT22;56610;48.872;2.400;2022-09-01T10:26:08;27.80;95.30
69418;DHT22;56610;48.872;2.400;2022-09-01T10:28:45;28.10;94.80
69418;DHT22;56610;48.872;2.400;2022-09-01T10:31:13;28.40;94.10
69418;DHT22;56610;48.872;2.400;2022-09-01T10:33:39;28.60;94.10
69418;DHT22;56610;48.872;2.400;2022-09-01T10:36:05;28.70;93.40
69418;DHT22;56610;48.872;2.400;2022-09-01T10:38:31;29.00;93.10
69418;DHT22;56610;48.872;2.400;2022-09-01T10:40:58;29.10;93.00
69418;DHT22;56610;48.872;2.400;2022-09-01T10:48:46;29.00;92.80
69418;DHT22;56610;48.872;2.400;2022-09-01T10:53:41;29.40;92.30
69418;DHT22;56610;48.872;2.400;2022-09-01T10:56:39;29.40;92.30
69418;DHT22;56610;48.872;2.400;2022-09-01T10:59:09;29.30;92.30
69418;DHT22;56610;48.872;2.400;2022-09-01T11:07:04;29.50;91.70
69418;DHT22;56610;48.872;2.400;2022-09-01T11:12:13;30.20;90.70
69418;DHT22;56610;48.872;2.400;2022-09-01T11:17:22;30.60;89.00
69418;DHT22;56610;48.872;2.400;2022-09-01T11:20:09;30.90;88.40
69418;DHT22;56610;48.872;2.400;2022-09-01T11:22:42;31.00;88.10
69418;DHT22;56610;48.872;2.400;2022-09-01T11:36:06;31.50;83.60
69418;DHT22;56610;48.872;2.400;2022-09-01T11:43:59;31.80;82.20
69418;DHT22;56610;48.872;2.400;2022-09-01T11:46:28;31.80;82.00
69418;DHT22;56610;48.872;2.400;2022-09-01T11:48:57;32.00;81.20
69418;DHT22;56610;48.872;2.400;2022-09-01T11:51:24;32.00;81.00
69418;DHT22;56610;48.872;2.400;2022-09-01T11:53:51;31.80;81.20
69418;DHT22;56610;48.872;2.400;2022-09-01T11:56:26;31.80;81.70
69418;DHT22;56610;48.872;2.400;2022-09-01T11:58:52;32.00;80.40
69418;DHT22;56610;48.872;2.400;2022-09-01T12:01:30;32.10;80.50
69418;DHT22;56610;48.872;2.400;2022-09-01T12:03:56;32.50;79.70
69418;DHT22;56610;48.872;2.400;2022-09-01T12:06:27;32.80;79.00
69418;DHT22;56610;48.872;2.400;2022-09-01T12:08:59;33.30;78.40
69418;DHT22;56610;48.872;2.400;2022-09-01T12:11:30;33.70;77.70
69418;DHT22;56610;48.872;2.400;2022-09-01T12:14:04;33.70;77.40
69418;DHT22;56610;48.872;2.400;2022-09-01T12:16:31;33.70;77.10
69418;DHT22;56610;48.872;2.400;2022-09-01T12:18:59;33.60;76.90
69418;DHT22;56610;48.872;2.400;2022-09-01T12:21:32;33.40;76.90
69418;DHT22;56610;48.872;2.400;2022-09-01T12:24:21;33.50;76.30
69418;DHT22;56610;48.872;2.400;2022-09-01T12:26:50;33.50;76.40
69418;DHT22;56610;48.872;2.400;2022-09-01T12:29:19;33.60;76.40
69418;DHT22;56610;48.872;2.400;2022-09-01T12:31:47;33.50;76.00
69418;DHT22;56610;48.872;2.400;2022-09-01T12:34:56;33.30;76.30
69418;DHT22;56610;48.872;2.400;2022-09-01T12:37:25;33.40;76.40
69418;DHT22;56610;48.872;2.400;2022-09-01T12:39:51;33.70;75.70
69418;DHT22;56610;48.872;2.400;2022-09-01T12:44:58;34.60;74.50
69418;DHT22;56610;48.872;2.400;2022-09-01T12:50:03;34.80;73.80
69418;DHT22;56610;48.872;2.400;2022-09-01T12:52:31;34.80;72.60
69418;DHT22;56610;48.872;2.400;2022-09-01T13:02:48;34.60;72.80
69418;DHT22;56610;48.872;2.400;2022-09-01T13:05:22;34.40;72.70
69418;DHT22;56610;48.872;2.400;2022-09-01T13:07:52;34.30;71.80
69418;DHT22;56610;48.872;2.400;2022-09-01T13:10:18;34.30;72.20
69418;DHT22;56610;48.872;2.400;2022-09-01T13:12:44;34.30;71.20
69418;DHT22;56610;48.872;2.400;2022-09-01T13:15:11;34.30;71.70
69418;DHT22;56610;48.872;2.400;2022-09-01T13:17:37;34.20;72.20
69418;DHT22;56610;48.872;2.400;2022-09-01T13:20:04;34.00;72.30
69418;DHT22;56610;48.872;2.400;2022-09-01T13:22:30;34.00;73.00
69418;DHT22;56610;48.872;2.400;2022-09-01T13:24:56;34.10;73.00
69418;DHT22;56610;48.872;2.400;2022-09-01T13:27:22;34.70;72.70
69418;DHT22;56610;48.872;2.400;2022-09-01T13:29:48;35.00;72.70
69418;DHT22;56610;48.872;2.400;2022-09-01T13:32:15;35.20;71.90
69418;DHT22;56610;48.872;2.400;2022-09-01T13:34:41;35.40;71.10
69418;DHT22;56610;48.872;2.400;2022-09-01T13:37:07;35.20;70.80
69418;DHT22;56610;48.872;2.400;2022-09-01T13:39:32;35.10;70.40
69418;DHT22;56610;48.872;2.400;2022-09-01T13:41:58;34.90;70.40
69418;DHT22;56610;48.872;2.400;2022-09-01T13:44:24;34.70;70.70
69418;DHT22;56610;48.872;2.400;2022-09-01T13:46:49;34.40;71.40
69418;DHT22;56610;48.872;2.400;2022-09-01T13:49:15;34.10;71.80
69418;DHT22;56610;48.872;2.400;2022-09-01T13:51:40;34.00;72.00
69418;DHT22;56610;48.872;2.400;2022-09-01T13:54:06;33.90;72.20
69418;DHT22;56610;48.872;2.400;2022-09-01T13:56:32;34.00;72.30
69418;DHT22;56610;48.872;2.400;2022-09-01T13:58:57;34.00;72.30
69418;DHT22;56610;48.872;2.400;2022-09-01T14:01:23;34.20;71.90
69418;DHT22;56610;48.872;2.400;2022-09-01T14:03:49;34.80;71.60
69418;DHT22;56610;48.872;2.400;2022-09-01T14:06:15;35.30;71.10
69418;DHT22;56610;48.872;2.400;2022-09-01T14:08:41;35.70;70.00
69418;DHT22;56610;48.872;2.400;2022-09-01T14:11:07;35.90;70.10
69418;DHT22;56610;48.872;2.400;2022-09-01T14:13:33;35.90;69.80
69418;DHT22;56610;48.872;2.400;2022-09-01T14:16:00;35.90;69.50
69418;DHT22;56610;48.872;2.400;2022-09-01T14:18:25;35.70;69.70
69418;DHT22;56610;48.872;2.400;2022-09-01T14:20:57;35.60;69.40
69418;DHT22;56610;48.872;2.400;2022-09-01T14:23:25;35.50;69.10
69418;DHT22;56610;48.872;2.400;2022-09-01T14:25:51;35.10;69.00
69418;DHT22;56610;48.872;2.400;2022-09-01T14:28:19;34.80;69.60
69418;DHT22;56610;48.872;2.400;2022-09-01T14:30:45;34.70;70.00
69418;DHT22;56610;48.872;2.400;2022-09-01T14:33:11;34.70;69.40
69418;DHT22;56610;48.872;2.400;2022-09-01T14:35:39;34.60;69.40
69418;DHT22;56610;48.872;2.400;2022-09-01T14:38:05;34.60;69.80
69418;DHT22;56610;48.872;2.400;2022-09-01T14:40:32;35.10;69.30
69418;DHT22;56610;48.872;2.400;2022-09-01T14:42:58;35.20;69.30
69418;DHT22;56610;48.872;2.400;2022-09-01T14:45:26;35.20;68.80
69418;DHT22;56610;48.872;2.400;2022-09-01T14:47:55;34.80;69.50
69418;DHT22;56610;48.872;2.400;2022-09-01T14:50:24;34.60;70.00
69418;DHT22;56610;48.872;2.400;2022-09-01T14:52:52;34.90;69.70
69418;DHT22;56610;48.872;2.400;2022-09-01T14:55:23;35.20;68.80
69418;DHT22;56610;48.872;2.400;2022-09-01T14:57:49;35.20;68.70
69418;DHT22;56610;48.872;2.400;2022-09-01T15:00:17;35.40;69.00
69418;DHT22;56610;48.872;2.400;2022-09-01T15:02:43;35.90;67.90
69418;DHT22;56610;48.872;2.400;2022-09-01T15:05:10;36.40;67.70
69418;DHT22;56610;48.872;2.400;2022-09-01T15:07:36;36.50;67.50
69418;DHT22;56610;48.872;2.400;2022-09-01T15:10:03;36.90;66.80
69418;DHT22;56610;48.872;2.400;2022-09-01T15:12:29;36.90;66.40
69418;DHT22;56610;48.872;2.400;2022-09-01T15:14:59;37.30;65.20
69418;DHT22;56610;48.872;2.400;2022-09-01T15:17:26;37.50;64.80
69418;DHT22;56610;48.872;2.400;2022-09-01T15:19:52;37.30;64.00
69418;DHT22;56610;48.872;2.400;2022-09-01T15:22:18;37.00;64.10
69418;DHT22;56610;48.872;2.400;2022-09-01T15:24:43;36.70;64.30
69418;DHT22;56610;48.872;2.400;2022-09-01T15:27:09;36.80;63.50
69418;DHT22;56610;48.872;2.400;2022-09-01T15:29:36;36.80;63.40
69418;DHT22;56610;48.872;2.400;2022-09-01T15:32:10;36.50;63.50
69418;DHT22;56610;48.872;2.400;2022-09-01T15:34:37;36.00;64.30
69418;DHT22;56610;48.872;2.400;2022-09-01T15:37:03;35.70;65.20
69418;DHT22;56610;48.872;2.400;2022-09-01T15:39:29;35.60;65.50
69418;DHT22;56610;48.872;2.400;2022-09-01T15:41:55;35.20;66.10
69418;DHT22;56610;48.872;2.400;2022-09-01T15:44:21;34.70;66.70
69418;DHT22;56610;48.872;2.400;2022-09-01T15:46:47;34.30;67.00
69418;DHT22;56610;48.872;2.400;2022-09-01T15:49:13;34.10;67.40
69418;DHT22;56610;48.872;2.400;2022-09-01T15:51:41;34.00;67.80
69418;DHT22;56610;48.872;2.400;2022-09-01T15:54:16;34.00;67.90
69418;DHT22;56610;48.872;2.400;2022-09-01T15:56:44;34.00;68.00
69418;DHT22;56610;48.872;2.400;2022-09-01T15:59:11;34.10;68.10
69418;DHT22;56610;48.872;2.400;2022-09-01T16:01:40;34.10;68.00
69418;DHT22;56610;48.872;2.400;2022-09-01T16:04:07;34.00;67.70
69418;DHT22;56610;48.872;2.400;2022-09-01T16:06:34;33.90;67.70
69418;DHT22;56610;48.872;2.400;2022-09-01T16:08:59;33.70;68.20
69418;DHT22;56610;48.872;2.400;2022-09-01T16:11:26;33.50;68.60
69418;DHT22;56610;48.872;2.400;2022-09-01T16:13:52;33.20;68.60
69418;DHT22;56610;48.872;2.400;2022-09-01T16:24:14;32.40;69.40
69418;DHT22;56610;48.872;2.400;2022-09-01T16:26:40;32.30;69.50
69418;DHT22;56610;48.872;2.400;2022-09-01T16:29:13;32.10;69.60
69418;DHT22;56610;48.872;2.400;2022-09-01T16:31:41;32.00;69.90
69418;DHT22;56610;48.872;2.400;2022-09-01T16:34:15;32.00;69.70
69418;DHT22;56610;48.872;2.400;2022-09-01T16:37:24;31.90;69.90
69418;DHT22;56610;48.872;2.400;2022-09-01T16:40:00;31.90;70.00
69418;DHT22;56610;48.872;2.400;2022-09-01T16:42:34;31.80;70.10
69418;DHT22;56610;48.872;2.400;2022-09-01T16:45:32;31.60;70.10
69418;DHT22;56610;48.872;2.400;2022-09-01T16:59:40;30.90;71.40
69418;DHT22;56610;48.872;2.400;2022-09-01T17:02:21;30.90;71.00
69418;DHT22;56610;48.872;2.400;2022-09-01T17:05:20;31.10;71.00
69418;DHT22;56610;48.872;2.400;2022-09-01T17:08:11;31.20;71.00
69418;DHT22;56610;48.872;2.400;2022-09-01T17:13:32;31.30;70.90
69418;DHT22;56610;48.872;2.400;2022-09-01T17:16:44;31.40;70.80
69418;DHT22;56610;48.872;2.400;2022-09-01T17:19:03;31.40;70.80
69418;DHT22;56610;48.872;2.400;2022-09-01T17:26:39;31.30;70.60
69418;DHT22;56610;48.872;2.400;2022-09-01T17:29:16;31.20;70.50
69418;DHT22;56610;48.872;2.400;2022-09-01T17:32:06;31.10;70.50
69418;DHT22;56610;48.872;2.400;2022-09-01T17:41:01;30.90;70.50
69418;DHT22;56610;48.872;2.400;2022-09-01T17:46:06;30.60;70.60
69418;DHT22;56610;48.872;2.400;2022-09-01T17:48:50;30.60;70.70
69418;DHT22;56610;48.872;2.400;2022-09-01T17:54:13;30.60;70.70
69418;DHT22;56610;48.872;2.400;2022-09-01T18:02:39;30.20;70.80
69418;DHT22;56610;48.872;2.400;2022-09-01T18:05:21;30.10;70.90